createdAt,value
2023-04-19T00:00:25.507Z,22.61
2023-04-19T00:01:57.047Z,22.78
2023-04-19T00:03:28.754Z,23.21
2023-04-19T00:05:00.334Z,23.46
2023-04-19T00:06:31.940Z,21.67
2023-04-19T00:08:03.284Z,21.62
2023-04-19T00:09:34.562Z,22.86
2023-04-19T00:11:05.928Z,21.44
2023-04-19T00:12:37.233Z,24.00
2023-04-19T00:14:08.729Z,22.85
2023-04-19T00:15:40.543Z,22.95
2023-04-19T00:17:11.965Z,21.90
2023-04-19T00:18:43.237Z,23.15
2023-04-19T00:20:14.705Z,22.58
2023-04-19T00:21:46.048Z,21.93
2023-04-19T00:23:22.325Z,23.03
2023-04-19T00:24:53.833Z,21.66
2023-04-19T00:26:25.241Z,22.55
2023-04-19T00:27:56.519Z,21.48
2023-04-19T00:29:27.846Z,21.98
2023-04-19T00:30:59.253Z,22.51
2023-04-19T00:32:30.994Z,21.70
2023-04-19T00:34:02.325Z,21.51
2023-04-19T00:35:34.010Z,21.76
2023-04-19T00:37:05.541Z,22.28
2023-04-19T00:38:37.021Z,22.81
2023-04-19T00:40:08.552Z,24.93
2023-04-19T00:41:40.165Z,25.34
2023-04-19T00:43:11.586Z,24.18
2023-04-19T00:44:42.880Z,24.13
2023-04-19T00:46:14.533Z,23.21
2023-04-19T00:47:47.733Z,22.27
2023-04-19T00:49:19.079Z,22.49
2023-04-19T00:50:50.736Z,23.36
2023-04-19T00:52:22.596Z,21.75
2023-04-19T00:53:53.899Z,22.78
2023-04-19T00:55:25.333Z,22.23
2023-04-19T00:56:56.817Z,22.59
2023-04-19T00:58:28.573Z,23.95
2023-04-19T01:00:00.270Z,21.91
2023-04-19T01:01:31.786Z,22.15
2023-04-19T01:03:03.927Z,21.71
2023-04-19T01:04:36.038Z,23.64
2023-04-19T01:06:07.720Z,21.90
2023-04-19T01:07:39.132Z,21.60
2023-04-19T01:09:10.391Z,22.66
2023-04-19T01:10:41.756Z,22.91
2023-04-19T01:12:12.987Z,21.63
2023-04-19T01:13:44.270Z,22.16
2023-04-19T01:15:15.809Z,20.92
2023-04-19T01:16:47.246Z,22.02
2023-04-19T01:18:18.549Z,22.86
2023-04-19T01:19:49.851Z,22.09
2023-04-19T01:21:21.265Z,20.55
2023-04-19T01:22:52.555Z,21.57
2023-04-19T01:24:23.883Z,21.80
2023-04-19T01:25:55.320Z,20.90
2023-04-19T01:27:26.788Z,21.82
2023-04-19T01:28:58.044Z,20.34
2023-04-19T01:30:29.414Z,19.73
2023-04-19T01:32:00.773Z,20.40
2023-04-19T01:33:32.038Z,19.35
2023-04-19T01:35:03.469Z,18.82
2023-04-19T01:36:35.062Z,20.30
2023-04-19T01:38:06.394Z,19.28
2023-04-19T01:39:37.686Z,18.38
2023-04-19T01:41:08.940Z,17.62
2023-04-19T01:42:40.591Z,17.40
2023-04-19T01:44:12.014Z,16.28
2023-04-19T01:45:43.514Z,18.17
2023-04-19T01:47:14.970Z,17.34
2023-04-19T01:48:46.224Z,18.01
2023-04-19T01:50:17.501Z,16.76
2023-04-19T01:51:49.282Z,17.06
2023-04-19T01:53:20.765Z,15.51
2023-04-19T01:54:52.087Z,15.60
2023-04-19T01:56:23.349Z,15.30
2023-04-19T01:57:54.884Z,13.29
2023-04-19T01:59:26.267Z,12.79
2023-04-19T02:00:57.757Z,14.02
2023-04-19T02:02:29.289Z,15.09
2023-04-19T02:04:01.011Z,14.10
2023-04-19T02:05:32.717Z,14.31
2023-04-19T02:07:04.144Z,13.87
2023-04-19T02:08:35.630Z,14.07
2023-04-19T02:10:06.896Z,14.08
2023-04-19T02:11:38.248Z,13.82
2023-04-19T02:13:09.714Z,13.23
2023-04-19T02:14:41.028Z,12.84
2023-04-19T02:16:12.504Z,13.90
2023-04-19T02:17:44.097Z,12.84
2023-04-19T02:19:15.509Z,13.25
2023-04-19T02:20:46.852Z,13.00
2023-04-19T02:22:18.109Z,11.95
2023-04-19T02:23:49.366Z,11.55
2023-04-19T02:25:20.634Z,12.94
2023-04-19T02:26:51.920Z,11.93
2023-04-19T02:28:23.471Z,13.04
2023-04-19T02:29:54.926Z,11.45
2023-04-19T02:31:26.226Z,11.91
2023-04-19T02:32:57.645Z,10.41
2023-04-19T02:34:29.017Z,11.38
2023-04-19T02:36:00.312Z,10.44
2023-04-19T02:37:31.642Z,9.49
2023-04-19T02:39:03.061Z,10.24
2023-04-19T02:40:34.358Z,9.55
2023-04-19T02:42:05.716Z,9.60
2023-04-19T02:43:42.096Z,8.84
2023-04-19T02:45:13.456Z,10.39
2023-04-19T02:46:44.913Z,10.46
2023-04-19T02:48:16.374Z,9.25
2023-04-19T02:49:47.641Z,9.71
2023-04-19T02:51:19.016Z,10.06
2023-04-19T02:52:50.275Z,8.87
2023-04-19T02:54:21.725Z,9.43
2023-04-19T02:55:53.191Z,8.86
2023-04-19T02:57:24.448Z,7.56
2023-04-19T02:58:55.821Z,8.50
2023-04-19T03:00:27.105Z,7.53
2023-04-19T03:01:58.485Z,9.39
2023-04-19T03:03:30.157Z,9.59
2023-04-19T03:05:01.541Z,8.77
2023-04-19T03:06:34.039Z,8.21
2023-04-19T03:08:05.566Z,8.70
2023-04-19T03:09:37.053Z,8.72
2023-04-19T03:11:08.280Z,8.99
2023-04-19T03:12:39.641Z,8.08
2023-04-19T03:14:11.018Z,8.71
2023-04-19T03:15:42.407Z,9.32
2023-04-19T03:17:13.656Z,7.86
2023-04-19T03:20:16.625Z,7.88
2023-04-19T03:21:48.043Z,8.14
2023-04-19T03:23:19.295Z,9.42
2023-04-19T03:24:50.861Z,8.48
2023-04-19T03:26:22.314Z,9.20
2023-04-19T03:27:53.675Z,9.86
2023-04-19T03:29:25.188Z,8.27
2023-04-19T03:30:56.660Z,7.65
2023-04-19T03:32:28.074Z,7.18
2023-04-19T03:33:59.494Z,7.76
2023-04-19T03:35:30.851Z,8.14
2023-04-19T03:37:02.222Z,8.55
2023-04-19T03:38:33.531Z,7.78
2023-04-19T03:40:05.103Z,8.03
2023-04-19T03:41:37.716Z,9.85
2023-04-19T03:43:08.977Z,8.80
2023-04-19T03:44:40.222Z,8.50
2023-04-19T03:46:11.463Z,8.53
2023-04-19T03:47:43.099Z,7.46
2023-04-19T03:49:14.463Z,7.99
2023-04-19T03:50:48.016Z,7.81
2023-04-19T03:52:19.354Z,8.07
2023-04-19T03:53:51.715Z,7.70
2023-04-19T03:55:23.258Z,7.47
2023-04-19T03:56:54.898Z,6.99
2023-04-19T03:58:26.234Z,7.22
2023-04-19T03:59:57.470Z,6.69
2023-04-19T04:01:28.843Z,8.78
2023-04-19T04:03:01.675Z,7.39
2023-04-19T04:04:33.433Z,9.47
2023-04-19T04:06:06.211Z,7.53
2023-04-19T04:07:37.621Z,7.29
2023-04-19T04:09:08.956Z,7.64
2023-04-19T04:10:40.290Z,6.93
2023-04-19T04:12:12.665Z,8.77
2023-04-19T04:13:43.924Z,7.78
2023-04-19T04:15:15.357Z,7.38
2023-04-19T04:16:47.011Z,7.31
2023-04-19T04:18:18.419Z,6.88
2023-04-19T04:19:49.843Z,6.76
2023-04-19T04:21:21.157Z,6.89
2023-04-19T04:22:52.702Z,7.81
2023-04-19T04:24:24.108Z,8.85
2023-04-19T04:25:55.744Z,7.54
2023-04-19T04:27:27.268Z,7.80
2023-04-19T04:28:58.704Z,7.73
2023-04-19T04:30:30.134Z,7.46
2023-04-19T04:32:01.538Z,10.10
2023-04-19T04:33:33.091Z,7.89
2023-04-19T04:35:04.621Z,8.07
2023-04-19T04:36:36.085Z,8.92
2023-04-19T04:38:17.512Z,9.16
2023-04-19T04:39:53.125Z,7.37
2023-04-19T04:41:24.541Z,9.00
2023-04-19T04:42:55.948Z,8.66
2023-04-19T04:44:27.563Z,8.21
2023-04-19T04:45:59.429Z,7.87
2023-04-19T04:47:30.882Z,10.41
2023-04-19T04:49:02.602Z,9.85
2023-04-19T04:50:34.279Z,7.86
2023-04-19T04:52:06.116Z,9.28
2023-04-19T04:53:38.190Z,9.50
2023-04-19T04:55:09.913Z,10.60
2023-04-19T04:56:41.754Z,8.92
2023-04-19T04:58:20.462Z,8.40
2023-04-19T04:59:57.356Z,9.32
2023-04-19T05:01:28.771Z,9.60
2023-04-19T05:03:00.564Z,10.98
2023-04-19T05:04:32.313Z,10.42
2023-04-19T05:06:05.258Z,10.11
2023-04-19T05:07:36.631Z,9.79
2023-04-19T05:11:18.987Z,9.72
2023-04-19T05:12:50.420Z,10.76
2023-04-19T05:14:37.032Z,9.77
2023-04-19T05:16:08.473Z,12.39
2023-04-19T05:17:40.524Z,10.09
2023-04-19T05:19:12.005Z,9.71
2023-04-19T05:20:43.461Z,10.52
2023-04-19T05:22:14.911Z,9.46
2023-04-19T05:23:46.365Z,10.80
2023-04-19T05:25:17.676Z,10.01
2023-04-19T05:26:49.315Z,10.65
2023-04-19T05:28:20.762Z,10.34
2023-04-19T05:29:52.072Z,10.12
2023-04-19T05:31:23.626Z,10.33
2023-04-19T05:32:55.187Z,11.45
2023-04-19T05:34:26.677Z,10.60
2023-04-19T05:35:57.989Z,10.88
2023-04-19T05:37:29.401Z,10.59
2023-04-19T05:39:00.928Z,10.13
2023-04-19T05:40:32.341Z,10.51
2023-04-19T05:42:03.689Z,10.20
2023-04-19T05:43:35.018Z,12.12
2023-04-19T05:45:06.444Z,10.69
2023-04-19T05:46:37.744Z,12.03
2023-04-19T05:48:09.265Z,10.17
2023-04-19T05:49:42.080Z,10.13
2023-04-19T05:51:15.099Z,10.46
2023-04-19T05:52:46.774Z,11.23
2023-04-19T05:54:18.554Z,10.30
2023-04-19T05:55:50.199Z,11.74
2023-04-19T05:57:21.497Z,12.28
2023-04-19T05:58:53.455Z,11.67
2023-04-19T06:00:24.837Z,9.27
2023-04-19T06:01:56.285Z,10.18
2023-04-19T06:03:29.971Z,9.05
2023-04-19T06:05:09.396Z,10.39
2023-04-19T06:06:41.922Z,11.44
2023-04-19T06:08:13.126Z,10.05
2023-04-19T06:09:44.633Z,10.59
2023-04-19T06:11:26.406Z,11.32
2023-04-19T06:13:00.757Z,9.00
2023-04-19T06:14:32.286Z,10.82
2023-04-19T06:16:03.624Z,9.98
2023-04-19T06:17:35.031Z,8.46
2023-04-19T06:19:06.546Z,12.50
2023-04-19T06:20:38.065Z,9.99
2023-04-19T06:22:09.280Z,10.05
2023-04-19T06:23:40.628Z,10.62
2023-04-19T06:25:11.848Z,10.26
2023-04-19T06:26:43.409Z,9.91
2023-04-19T06:28:14.707Z,7.83
2023-04-19T06:29:46.224Z,10.84
2023-04-19T06:31:17.778Z,9.79
2023-04-19T06:32:49.122Z,8.65
2023-04-19T06:34:20.480Z,10.01
2023-04-19T06:35:51.787Z,9.45
2023-04-19T06:37:22.989Z,9.85
2023-04-19T06:38:54.994Z,9.82
2023-04-19T06:40:26.377Z,10.15
2023-04-19T06:41:58.467Z,8.64
2023-04-19T06:43:30.085Z,9.08
2023-04-19T06:45:06.392Z,8.24
2023-04-19T06:46:42.839Z,9.92
2023-04-19T06:48:14.125Z,10.14
2023-04-19T06:49:45.715Z,9.01
2023-04-19T06:51:17.339Z,10.06
2023-04-19T06:52:48.664Z,8.20
2023-04-19T06:54:20.457Z,7.97
2023-04-19T06:55:51.978Z,7.42
2023-04-19T06:57:23.451Z,9.70
2023-04-19T06:58:54.880Z,8.48
2023-04-19T07:00:26.203Z,8.01
2023-04-19T07:01:57.699Z,6.44
2023-04-19T07:03:29.123Z,6.58
2023-04-19T07:05:00.559Z,6.86
2023-04-19T07:06:31.901Z,9.32
2023-04-19T07:08:03.272Z,9.00
2023-04-19T07:09:34.857Z,10.10
2023-04-19T07:11:06.181Z,6.48
2023-04-19T07:12:37.428Z,7.16
2023-04-19T07:14:09.296Z,9.05
2023-04-19T07:15:40.683Z,9.37
2023-04-19T07:17:12.146Z,7.49
2023-04-19T07:18:43.512Z,9.66
2023-04-19T07:20:14.765Z,7.89
2023-04-19T07:21:46.269Z,7.57
2023-04-19T07:23:17.733Z,8.21
2023-04-19T07:24:49.156Z,9.83
2023-04-19T07:26:20.694Z,7.91
2023-04-19T07:27:52.689Z,7.28
2023-04-19T07:29:24.228Z,7.78
2023-04-19T07:30:55.611Z,6.41
2023-04-19T07:32:27.089Z,7.14
2023-04-19T07:33:58.640Z,8.78
2023-04-19T07:35:31.151Z,7.93
2023-04-19T07:37:02.656Z,10.79
2023-04-19T07:38:34.027Z,7.42
2023-04-19T07:40:05.437Z,7.01
2023-04-19T07:41:36.866Z,8.56
2023-04-19T07:43:08.091Z,9.23
2023-04-19T07:44:39.326Z,7.87
2023-04-19T07:46:11.091Z,5.62
2023-04-19T07:47:42.460Z,6.07
2023-04-19T07:49:14.165Z,6.21
2023-04-19T07:50:45.619Z,7.46
2023-04-19T07:52:16.927Z,7.55
2023-04-19T07:53:48.676Z,5.93
2023-04-19T07:55:20.118Z,6.95
2023-04-19T07:56:51.437Z,5.96
2023-04-19T07:58:22.684Z,6.02
2023-04-19T07:59:54.013Z,7.62
2023-04-19T08:01:25.239Z,7.06
2023-04-19T08:02:56.726Z,6.25
2023-04-19T08:04:28.555Z,5.61
2023-04-19T08:06:00.621Z,7.86
2023-04-19T08:07:32.076Z,8.06
2023-04-19T08:09:03.677Z,6.63
2023-04-19T08:10:35.021Z,8.10
2023-04-19T08:12:06.633Z,5.90
2023-04-19T08:13:39.942Z,7.06
2023-04-19T08:15:45.065Z,6.23
2023-04-19T08:17:44.719Z,6.03
2023-04-19T08:19:16.233Z,7.31
2023-04-19T08:20:47.828Z,8.74
2023-04-19T08:22:19.332Z,6.16
2023-04-19T08:23:53.533Z,4.95
2023-04-19T08:25:25.586Z,4.90
2023-04-19T08:26:59.459Z,5.92
2023-04-19T08:28:36.525Z,5.82
2023-04-19T08:30:08.156Z,7.59
2023-04-19T08:31:39.554Z,6.91
2023-04-19T08:33:11.141Z,4.41
2023-04-19T08:34:42.464Z,6.79
2023-04-19T08:36:17.039Z,4.93
2023-04-19T08:37:51.133Z,5.17
2023-04-19T08:39:32.209Z,4.25
2023-04-19T08:41:04.612Z,5.29
2023-04-19T08:42:37.279Z,4.84
2023-04-19T08:44:08.750Z,5.11
2023-04-19T08:45:40.047Z,4.83
2023-04-19T08:47:15.224Z,5.19
2023-04-19T08:48:52.878Z,5.12
2023-04-19T08:50:32.605Z,6.43
2023-04-19T08:52:05.984Z,6.24
2023-04-19T08:53:37.284Z,5.20
2023-04-19T08:55:08.612Z,4.87
2023-04-19T08:56:40.401Z,5.07
2023-04-19T08:58:18.959Z,5.95
2023-04-19T08:59:54.704Z,5.80
2023-04-19T09:01:35.332Z,4.33
2023-04-19T09:03:08.008Z,5.24
2023-04-19T09:04:40.078Z,3.73
2023-04-19T09:06:11.712Z,5.01
2023-04-19T09:07:43.151Z,5.13
2023-04-19T09:09:28.399Z,5.00
2023-04-19T09:11:05.331Z,5.12
2023-04-19T09:12:36.611Z,5.33
2023-04-19T09:14:07.904Z,4.66
2023-04-19T09:15:39.324Z,5.30
2023-04-19T09:17:11.452Z,5.12
2023-04-19T09:18:56.210Z,4.99
2023-04-19T09:20:32.063Z,3.59
2023-04-19T09:22:05.502Z,2.89
2023-04-19T09:23:36.922Z,5.78
2023-04-19T09:26:42.540Z,5.10
2023-04-19T09:28:13.918Z,4.28
2023-04-19T09:29:45.579Z,3.31
2023-04-19T09:31:39.101Z,3.74
2023-04-19T09:33:19.499Z,5.29
2023-04-19T09:34:51.032Z,4.25
2023-04-19T09:36:23.054Z,4.93
2023-04-19T09:38:04.677Z,4.04
2023-04-19T09:39:37.837Z,4.38
2023-04-19T09:41:09.031Z,6.29
2023-04-19T09:42:55.492Z,5.38
2023-04-19T09:45:09.459Z,5.21
2023-04-19T09:46:53.514Z,5.88
2023-04-19T09:48:25.376Z,5.32
2023-04-19T09:49:56.719Z,3.88
2023-04-19T09:51:28.134Z,4.70
2023-04-19T09:52:59.566Z,6.08
2023-04-19T09:54:31.255Z,5.29
2023-04-19T09:56:03.357Z,5.44
2023-04-19T09:57:35.977Z,5.59
2023-04-19T09:59:19.401Z,6.82
2023-04-19T10:00:57.263Z,5.50
2023-04-19T10:02:34.806Z,4.34
2023-04-19T10:04:19.845Z,4.72
2023-04-19T10:05:57.590Z,6.52
2023-04-19T10:07:31.022Z,2.91
2023-04-19T10:09:02.978Z,3.56
2023-04-19T10:10:42.080Z,5.93
2023-04-19T10:12:38.486Z,6.42
2023-04-19T10:14:23.402Z,5.23
2023-04-19T10:15:59.403Z,5.21
2023-04-19T10:17:36.539Z,4.62
2023-04-19T10:19:09.808Z,4.98
2023-04-19T10:20:41.558Z,5.58
2023-04-19T10:22:12.915Z,6.34
2023-04-19T10:23:44.352Z,6.42
2023-04-19T10:25:16.965Z,5.09
2023-04-19T10:26:48.312Z,4.30
2023-04-19T10:28:19.573Z,4.29
2023-04-19T10:29:50.906Z,4.36
2023-04-19T10:31:22.241Z,5.41
2023-04-19T10:32:53.673Z,8.20
2023-04-19T10:34:25.199Z,5.51
2023-04-19T10:35:56.460Z,4.58
2023-04-19T10:37:27.996Z,5.58
2023-04-19T10:38:59.359Z,4.14
2023-04-19T10:40:30.621Z,3.86
2023-04-19T10:42:01.884Z,4.55
2023-04-19T10:43:33.256Z,4.07
2023-04-19T10:45:04.709Z,6.02
2023-04-19T10:46:36.511Z,3.79
2023-04-19T10:48:08.006Z,5.97
2023-04-19T10:49:39.309Z,5.13
2023-04-19T10:51:10.835Z,3.71
2023-04-19T10:52:42.197Z,6.03
2023-04-19T10:54:13.463Z,4.38
2023-04-19T10:55:44.693Z,5.52
2023-04-19T10:57:16.070Z,5.46
2023-04-19T10:58:48.486Z,5.31
2023-04-19T11:00:20.005Z,4.97
2023-04-19T11:01:51.661Z,5.49
2023-04-19T11:03:23.170Z,4.11
2023-04-19T11:04:54.556Z,4.48
2023-04-19T11:06:26.057Z,4.21
2023-04-19T11:07:59.214Z,4.82
2023-04-19T11:09:30.555Z,7.33
2023-04-19T11:11:02.019Z,4.96
2023-04-19T11:12:33.318Z,6.19
2023-04-19T11:14:04.569Z,6.12
2023-04-19T11:15:36.071Z,5.39
2023-04-19T11:17:07.656Z,4.92
2023-04-19T11:18:39.212Z,6.08
2023-04-19T11:20:10.644Z,7.97
2023-04-19T11:21:42.651Z,7.84
2023-04-19T11:23:14.140Z,5.00
2023-04-19T11:24:46.652Z,4.11
2023-04-19T11:26:18.078Z,5.07
2023-04-19T11:27:49.589Z,6.03
2023-04-19T11:29:21.010Z,4.98
2023-04-19T11:30:53.527Z,5.79
2023-04-19T11:32:25.516Z,4.76
2023-04-19T11:33:57.791Z,4.73
2023-04-19T11:35:29.274Z,6.12
2023-04-19T11:37:00.701Z,5.30
2023-04-19T11:38:32.057Z,4.99
2023-04-19T11:40:04.870Z,6.15
2023-04-19T11:41:36.943Z,5.77
2023-04-19T11:43:08.840Z,5.92
2023-04-19T11:44:40.214Z,6.64
2023-04-19T11:46:11.603Z,7.16
2023-04-19T11:47:43.047Z,7.16
2023-04-19T11:49:14.645Z,6.65
2023-04-19T11:50:46.099Z,5.84
2023-04-19T11:52:22.570Z,6.32
2023-04-19T11:54:04.099Z,5.28
2023-04-19T11:55:40.682Z,4.99
2023-04-19T11:57:12.025Z,4.65
2023-04-19T11:58:43.517Z,7.30
2023-04-19T12:00:15.039Z,8.75
2023-04-19T12:01:46.478Z,6.38
2023-04-19T12:03:18.124Z,6.94
2023-04-19T12:04:49.926Z,5.01
2023-04-19T12:06:21.459Z,7.99
2023-04-19T12:07:52.829Z,7.03
2023-04-19T12:09:24.400Z,6.29
2023-04-19T12:10:55.808Z,6.36
2023-04-19T12:12:27.193Z,5.05
2023-04-19T12:13:58.545Z,4.93
2023-04-19T12:15:29.904Z,4.09
2023-04-19T12:17:01.342Z,4.44
2023-04-19T12:18:32.765Z,6.22
2023-04-19T12:20:04.159Z,5.51
2023-04-19T12:21:35.627Z,7.36
2023-04-19T12:23:06.958Z,4.83
2023-04-19T12:24:38.562Z,4.99
2023-04-19T12:26:09.909Z,4.62
2023-04-19T12:27:41.338Z,7.09
2023-04-19T12:29:12.752Z,6.62
2023-04-19T12:30:44.298Z,7.51
2023-04-19T12:32:16.238Z,8.49
2023-04-19T12:33:47.789Z,5.92
2023-04-19T12:35:19.242Z,5.68
2023-04-19T12:36:55.824Z,6.73
2023-04-19T12:38:27.328Z,8.24
2023-04-19T12:39:58.961Z,6.39
2023-04-19T12:41:30.352Z,6.22
2023-04-19T12:43:01.771Z,4.58
2023-04-19T12:44:33.252Z,5.67
2023-04-19T12:46:04.841Z,7.93
2023-04-19T12:47:36.563Z,5.92
2023-04-19T12:49:08.139Z,7.55
2023-04-19T12:50:39.649Z,5.88
2023-04-19T12:52:11.009Z,4.80
2023-04-19T12:53:42.452Z,4.68
2023-04-19T12:55:13.793Z,5.71
2023-04-19T12:56:45.198Z,6.01
2023-04-19T12:58:16.712Z,7.01
2023-04-19T12:59:48.086Z,6.14
2023-04-19T13:01:20.746Z,7.41
2023-04-19T13:02:52.469Z,7.40
2023-04-19T13:04:24.456Z,4.93
2023-04-19T13:05:56.326Z,5.06
2023-04-19T13:07:27.807Z,5.66
2023-04-19T13:09:01.234Z,4.91
2023-04-19T13:10:33.081Z,4.32
2023-04-19T13:12:04.442Z,6.37
2023-04-19T13:13:35.951Z,4.86
2023-04-19T13:15:07.359Z,4.36
2023-04-19T13:16:38.982Z,4.20
2023-04-19T13:18:10.443Z,3.50
2023-04-19T13:19:41.995Z,6.93
2023-04-19T13:21:13.621Z,5.39
2023-04-19T13:22:45.423Z,6.24
2023-04-19T13:24:17.457Z,6.16
2023-04-19T13:25:49.552Z,8.04
2023-04-19T13:27:21.007Z,4.97
2023-04-19T13:28:52.543Z,5.64
2023-04-19T13:30:24.206Z,5.97
2023-04-19T13:31:55.705Z,5.23
2023-04-19T13:33:27.185Z,5.42
2023-04-19T13:34:58.850Z,5.44
2023-04-19T13:36:30.292Z,9.75
2023-04-19T13:38:01.882Z,5.90
2023-04-19T13:39:33.285Z,5.26
2023-04-19T13:41:04.698Z,6.09
2023-04-19T13:42:36.216Z,3.68
2023-04-19T13:44:07.618Z,6.83
2023-04-19T13:45:39.165Z,6.87
2023-04-19T13:47:10.767Z,5.22
2023-04-19T13:48:42.192Z,7.90
2023-04-19T13:50:13.606Z,4.64
2023-04-19T13:51:50.216Z,5.55
2023-04-19T13:53:22.291Z,4.13
2023-04-19T13:54:53.868Z,3.52
2023-04-19T13:56:25.357Z,4.37
2023-04-19T13:57:56.857Z,4.93
2023-04-19T13:59:28.360Z,4.78
2023-04-19T14:01:00.011Z,4.91
2023-04-19T14:02:31.848Z,4.61
2023-04-19T14:04:03.926Z,4.29
2023-04-19T14:05:36.062Z,6.40
2023-04-19T14:07:07.754Z,5.37
2023-04-19T14:08:39.176Z,4.19
2023-04-19T14:10:10.553Z,4.56
2023-04-19T14:11:41.946Z,5.09
2023-04-19T14:13:13.409Z,7.27
2023-04-19T14:14:44.946Z,3.42
2023-04-19T14:16:16.387Z,5.87
2023-04-19T14:17:47.901Z,5.17
2023-04-19T14:19:19.330Z,6.71
2023-04-19T14:20:50.759Z,6.00
2023-04-19T14:22:22.449Z,6.88
2023-04-19T14:23:53.850Z,5.52
2023-04-19T14:25:25.324Z,4.31
2023-04-19T14:27:09.064Z,3.21
2023-04-19T14:28:42.151Z,3.97
2023-04-19T14:30:13.634Z,3.57
2023-04-19T14:31:45.379Z,4.51
2023-04-19T14:33:16.933Z,3.66
2023-04-19T14:34:48.293Z,4.58
2023-04-19T14:36:20.769Z,5.21
2023-04-19T14:37:52.182Z,5.26
2023-04-19T14:39:23.619Z,3.11
2023-04-19T14:40:55.102Z,3.85
2023-04-19T14:42:26.683Z,4.87
2023-04-19T14:43:58.726Z,4.52
2023-04-19T14:45:30.262Z,3.63
2023-04-19T14:47:01.774Z,4.80
2023-04-19T14:48:33.383Z,6.12
2023-04-19T14:50:04.754Z,5.54
2023-04-19T14:51:36.251Z,5.26
2023-04-19T14:53:07.650Z,4.24
2023-04-19T14:54:39.056Z,4.33
2023-04-19T14:56:10.434Z,4.84
2023-04-19T14:57:42.045Z,4.13
2023-04-19T14:59:13.433Z,6.00
2023-04-19T15:00:44.860Z,3.41
2023-04-19T15:02:17.749Z,4.27
2023-04-19T15:03:49.500Z,4.23
2023-04-19T15:05:21.480Z,2.65
2023-04-19T15:06:53.180Z,3.09
2023-04-19T15:08:30.608Z,5.28
2023-04-19T15:10:02.620Z,4.27
2023-04-19T15:11:34.055Z,3.45
2023-04-19T15:13:05.445Z,5.50
2023-04-19T15:14:36.934Z,4.48
2023-04-19T15:16:08.393Z,4.68
2023-04-19T15:17:39.988Z,4.10
2023-04-19T15:19:11.550Z,3.88
2023-04-19T15:20:42.983Z,4.54
2023-04-19T15:22:14.364Z,3.37
2023-04-19T15:23:45.762Z,3.68
2023-04-19T15:25:17.547Z,3.81
2023-04-19T15:26:48.933Z,5.08
2023-04-19T15:28:20.329Z,4.42
2023-04-19T15:29:51.936Z,4.34
2023-04-19T15:31:23.464Z,4.92
2023-04-19T15:32:54.994Z,2.99
2023-04-19T15:34:26.407Z,4.09
2023-04-19T15:35:57.790Z,3.74
2023-04-19T15:37:29.305Z,4.86
2023-04-19T15:39:00.774Z,2.80
2023-04-19T15:40:32.253Z,5.29
2023-04-19T15:42:03.603Z,5.81
2023-04-19T15:43:35.005Z,3.52
2023-04-19T15:45:06.499Z,3.29
2023-04-19T15:46:37.998Z,3.53
2023-04-19T15:48:09.644Z,3.75
2023-04-19T15:49:41.148Z,3.63
2023-04-19T15:51:12.504Z,3.26
2023-04-19T15:52:43.937Z,3.45
2023-04-19T15:54:15.395Z,4.56
2023-04-19T15:55:46.983Z,4.18
2023-04-19T15:57:18.419Z,4.04
2023-04-19T15:58:49.928Z,4.58
2023-04-19T16:00:21.419Z,5.06
2023-04-19T16:01:53.290Z,3.33
2023-04-19T16:03:24.882Z,5.61
2023-04-19T16:04:56.492Z,5.11
2023-04-19T16:06:27.949Z,2.87
2023-04-19T16:07:59.532Z,2.50
2023-04-19T16:09:30.910Z,3.14
2023-04-19T16:11:02.294Z,4.55
2023-04-19T16:12:33.676Z,3.51
2023-04-19T16:14:05.153Z,2.57
2023-04-19T16:15:36.663Z,4.15
2023-04-19T16:17:08.339Z,4.06
2023-04-19T16:18:39.765Z,4.79
2023-04-19T16:20:11.186Z,5.56
2023-04-19T16:21:42.996Z,3.95
2023-04-19T16:23:14.383Z,4.48
2023-04-19T16:24:45.782Z,4.67
2023-04-19T16:26:17.334Z,4.05
2023-04-19T16:27:48.678Z,4.52
2023-04-19T16:29:20.045Z,3.46
2023-04-19T16:30:51.485Z,3.81
2023-04-19T16:32:22.974Z,2.84
2023-04-19T16:33:54.418Z,4.05
2023-04-19T16:35:26.903Z,3.91
2023-04-19T16:36:58.376Z,4.27
2023-04-19T16:38:29.811Z,5.02
2023-04-19T16:40:01.175Z,4.02
2023-04-19T16:41:32.820Z,7.13
2023-04-19T16:43:05.398Z,4.62
2023-04-19T16:44:36.903Z,5.17
2023-04-19T16:46:08.310Z,3.53
2023-04-19T16:47:39.890Z,5.16
2023-04-19T16:49:11.517Z,4.66
2023-04-19T16:50:43.001Z,5.06
2023-04-19T16:52:14.601Z,5.71
2023-04-19T16:53:46.386Z,3.01
2023-04-19T16:55:17.775Z,3.99
2023-04-19T16:56:49.288Z,5.34
2023-04-19T16:58:20.750Z,3.34
2023-04-19T16:59:52.447Z,5.34
2023-04-19T17:01:24.141Z,4.96
2023-04-19T17:02:55.698Z,4.79
2023-04-19T17:04:27.411Z,4.30
2023-04-19T17:05:59.072Z,3.99
2023-04-19T17:07:30.850Z,4.59
2023-04-19T17:09:02.203Z,5.77
2023-04-19T17:10:33.584Z,6.35
2023-04-19T17:12:04.996Z,4.99
2023-04-19T17:13:36.670Z,3.77
2023-04-19T17:15:08.046Z,6.12
2023-04-19T17:16:39.459Z,4.55
2023-04-19T17:18:10.923Z,6.25
2023-04-19T17:19:42.478Z,4.63
2023-04-19T17:21:13.834Z,5.26
2023-04-19T17:22:45.277Z,5.55
2023-04-19T17:24:16.690Z,6.07
2023-04-19T17:25:48.265Z,4.40
2023-04-19T17:27:19.582Z,5.87
2023-04-19T17:28:51.072Z,5.72
2023-04-19T17:30:22.376Z,4.56
2023-04-19T17:31:53.836Z,7.33
2023-04-19T17:33:25.888Z,4.97
2023-04-19T17:34:57.314Z,3.65
2023-04-19T17:36:28.794Z,5.90
2023-04-19T17:38:00.346Z,7.12
2023-04-19T17:39:31.633Z,5.23
2023-04-19T17:41:02.914Z,4.31
2023-04-19T17:42:34.225Z,5.75
2023-04-19T17:44:05.492Z,5.74
2023-04-19T17:45:36.783Z,7.36
2023-04-19T17:47:08.123Z,6.29
2023-04-19T17:48:39.463Z,4.59
2023-04-19T17:50:10.821Z,4.98
2023-04-19T17:51:42.172Z,4.58
2023-04-19T17:53:13.631Z,5.26
2023-04-19T17:54:45.173Z,5.00
2023-04-19T17:56:16.551Z,4.72
2023-04-19T17:57:47.872Z,5.13
2023-04-19T17:59:19.377Z,5.54
2023-04-19T18:00:51.156Z,7.14
2023-04-19T18:02:22.878Z,5.76
2023-04-19T18:03:54.722Z,6.03
2023-04-19T18:05:26.191Z,5.38
2023-04-19T18:06:57.529Z,6.93
2023-04-19T18:08:28.828Z,6.69
2023-04-19T18:10:00.350Z,6.41
2023-04-19T18:11:31.681Z,5.99
2023-04-19T18:13:03.006Z,6.20
2023-04-19T18:14:34.294Z,5.91
2023-04-19T18:16:05.770Z,10.02
2023-04-19T18:17:37.285Z,6.90
2023-04-19T18:19:09.104Z,7.48
2023-04-19T18:20:40.550Z,6.56
2023-04-19T18:22:11.894Z,7.41
2023-04-19T18:23:43.425Z,6.12
2023-04-19T18:25:14.750Z,6.33
2023-04-19T18:26:46.154Z,7.21
2023-04-19T18:28:27.920Z,8.70
2023-04-19T18:29:59.431Z,6.92
2023-04-19T18:31:31.089Z,6.62
2023-04-19T18:33:02.475Z,6.83
2023-04-19T18:34:34.039Z,5.77
2023-04-19T18:36:05.590Z,6.48
2023-04-19T18:37:36.887Z,5.08
2023-04-19T18:39:08.433Z,8.58
2023-04-19T18:40:39.827Z,5.11
2023-04-19T18:42:11.163Z,7.26
2023-04-19T18:45:44.086Z,8.08
2023-04-19T18:47:15.571Z,6.83
2023-04-19T18:48:47.319Z,6.61
2023-04-19T18:50:23.243Z,7.38
2023-04-19T18:51:54.703Z,8.12
2023-04-19T18:53:36.082Z,7.36
2023-04-19T18:55:07.382Z,8.28
2023-04-19T18:58:13.242Z,7.37
2023-04-19T18:59:44.822Z,6.32
2023-04-19T19:01:16.274Z,8.52
2023-04-19T19:02:53.397Z,8.35
2023-04-19T19:06:06.026Z,6.68
2023-04-19T19:08:12.654Z,7.78
2023-04-19T19:09:55.122Z,7.91
2023-04-19T19:11:51.992Z,6.78
2023-04-19T19:13:42.302Z,7.24
2023-04-19T19:15:23.749Z,7.76
2023-04-19T19:16:55.022Z,6.97
2023-04-19T19:19:57.990Z,9.06
2023-04-19T19:21:29.313Z,8.45
2023-04-19T19:23:00.867Z,9.06
2023-04-19T19:24:32.132Z,9.73
2023-04-19T19:26:03.604Z,10.44
2023-04-19T19:27:35.408Z,10.91
2023-04-19T19:29:06.829Z,11.50
2023-04-19T19:30:43.231Z,10.93
2023-04-19T19:32:14.891Z,10.22
2023-04-19T19:34:04.167Z,9.69
2023-04-19T19:36:02.399Z,10.25
2023-04-19T19:37:33.886Z,10.88
2023-04-19T19:39:05.767Z,10.10
2023-04-19T19:40:58.238Z,10.86
2023-04-19T19:42:53.927Z,10.33
2023-04-19T19:44:25.697Z,10.97
2023-04-19T19:45:57.443Z,11.18
2023-04-19T19:47:28.969Z,10.97
2023-04-19T19:49:00.649Z,10.65
2023-04-19T19:52:07.014Z,10.74
2023-04-19T19:53:38.751Z,10.69
2023-04-19T19:55:10.601Z,10.13
2023-04-19T19:57:08.546Z,8.55
2023-04-19T19:59:17.608Z,9.70
2023-04-19T20:00:52.860Z,10.25
2023-04-19T20:02:24.650Z,8.38
2023-04-19T20:03:56.798Z,8.58
2023-04-19T20:05:29.006Z,7.44
2023-04-19T20:07:29.348Z,11.34
2023-04-19T20:09:13.957Z,10.36
2023-04-19T20:10:45.462Z,8.71
2023-04-19T20:12:17.265Z,8.97
2023-04-19T20:13:48.808Z,6.91
2023-04-19T20:15:26.256Z,10.31
2023-04-19T20:16:57.989Z,9.23
2023-04-19T20:18:30.220Z,7.59
2023-04-19T20:20:05.633Z,8.86
2023-04-19T20:21:37.308Z,6.07
2023-04-19T20:23:09.073Z,7.75
2023-04-19T20:24:41.380Z,7.41
2023-04-19T20:26:13.789Z,9.27
2023-04-19T20:27:45.333Z,8.11
2023-04-19T20:29:17.445Z,8.00
2023-04-19T20:30:49.101Z,9.21
2023-04-19T20:32:21.074Z,6.59
2023-04-19T20:33:53.066Z,6.73
2023-04-19T20:35:24.711Z,8.26
2023-04-19T20:36:56.805Z,6.53